Time;durP1;ratioP1;P1;durP2;ratioP2;P2;SDS_P1;SDS_P2;PMS_P1;PMS_P2;Temp;Humidity;BMP_temperature;BMP_pressure;BME280_temperature;BME280_humidity;BME280_pressure;Samples;Min_cycle;Max_cycle;Signal;HPM_P1;HPM_P2
2023/07/19 00:00:46;;;;;;;5.10;2.33;;;22.20;99.90;;;;;;5075745;28;20254;-77
2023/07/19 00:03:11;;;;;;;4.03;2.73;;;22.30;99.90;;;;;;5074375;28;20508;-77
2023/07/19 00:05:37;;;;;;;7.73;3.33;;;22.30;99.90;;;;;;5075868;28;20175;-75
2023/07/19 00:08:04;;;;;;;6.50;2.57;;;22.20;99.90;;;;;;5075781;28;20167;-76
2023/07/19 00:10:30;;;;;;;4.40;2.63;;;22.30;99.90;;;;;;5075659;28;20182;-77
2023/07/19 00:12:56;;;;;;;5.13;2.50;;;22.20;99.90;;;;;;5075402;28;20192;-78
2023/07/19 00:15:22;;;;;;;4.60;2.53;;;22.20;99.90;;;;;;5076025;28;20175;-76
2023/07/19 00:17:48;;;;;;;3.27;2.40;;;22.20;99.90;;;;;;5077063;28;20667;-76
2023/07/19 00:20:16;;;;;;;3.60;2.40;;;22.20;99.90;;;;;;5077022;28;20202;-76
2023/07/19 00:22:42;;;;;;;6.60;2.70;;;22.10;99.90;;;;;;5075348;28;20631;-79
2023/07/19 00:25:08;;;;;;;3.57;2.50;;;21.80;99.90;;;;;;5075848;28;20186;-76
2023/07/19 00:27:34;;;;;;;4.07;2.40;;;21.80;99.90;;;;;;5075257;28;20258;-77
2023/07/19 00:30:00;;;;;;;5.90;2.70;;;21.80;99.90;;;;;;5075445;28;20237;-80
2023/07/19 00:32:25;;;;;;;3.67;2.97;;;21.70;99.90;;;;;;5075224;28;20262;-76
2023/07/19 00:34:51;;;;;;;5.80;2.70;;;21.60;99.90;;;;;;5075779;28;20171;-76
2023/07/19 00:37:17;;;;;;;3.93;2.90;;;21.60;99.90;;;;;;5092569;28;20203;-77
2023/07/19 00:39:43;;;;;;;5.87;3.33;;;21.70;99.90;;;;;;5082055;28;20225;-77
2023/07/19 00:42:09;;;;;;;4.70;2.40;;;21.70;99.90;;;;;;5078495;28;20179;-76
2023/07/19 00:44:35;;;;;;;3.10;2.60;;;21.80;99.90;;;;;;5084796;28;20183;-76
2023/07/19 00:47:02;;;;;;;4.77;2.73;;;22.00;99.90;;;;;;5075113;28;20706;-77
2023/07/19 00:49:30;;;;;;;2.70;2.50;;;22.10;99.90;;;;;;5075960;28;20177;-76
2023/07/19 00:51:56;;;;;;;2.83;2.53;;;22.10;99.90;;;;;;5078291;28;20269;-76
2023/07/19 00:54:22;;;;;;;3.77;2.70;;;22.20;99.90;;;;;;5089316;28;20223;-77
2023/07/19 00:56:48;;;;;;;3.80;2.43;;;22.20;99.90;;;;;;5073650;28;20203;-78
2023/07/19 00:59:16;;;;;;;3.60;2.50;;;22.30;99.90;;;;;;5075118;28;20211;-76
2023/07/19 01:01:44;;;;;;;2.97;2.67;;;22.30;99.90;;;;;;5074699;28;20174;-77
2023/07/19 01:04:11;;;;;;;6.73;2.80;;;22.10;99.90;;;;;;5073839;28;20201;-77
2023/07/19 01:06:37;;;;;;;4.20;3.10;;;22.20;99.90;;;;;;5073559;28;20182;-76
2023/07/19 01:09:03;;;;;;;8.03;3.07;;;22.10;99.90;;;;;;5075106;28;20174;-77
2023/07/19 01:11:29;;;;;;;5.50;2.60;;;22.10;99.90;;;;;;5074669;28;20247;-76
2023/07/19 01:13:55;;;;;;;2.83;2.60;;;22.20;99.90;;;;;;5074173;28;20211;-77
2023/07/19 01:16:21;;;;;;;4.77;2.57;;;22.20;99.90;;;;;;5087231;28;20285;-77
2023/07/19 01:18:48;;;;;;;4.30;2.50;;;22.00;99.90;;;;;;5083406;28;20168;-77
2023/07/19 01:21:14;;;;;;;4.80;2.67;;;21.90;99.90;;;;;;5074341;28;20676;-76
2023/07/19 01:23:40;;;;;;;4.07;3.10;;;21.80;99.90;;;;;;5074024;28;20534;-77
2023/07/19 01:26:06;;;;;;;4.70;2.80;;;21.70;99.90;;;;;;5073939;28;20588;-76
2023/07/19 01:28:32;;;;;;;3.10;2.73;;;21.40;99.90;;;;;;5074001;28;20220;-77
2023/07/19 01:31:03;;;;;;;4.97;3.37;;;21.10;99.90;;;;;;5072912;28;20634;-77
2023/07/19 01:33:30;;;;;;;6.17;2.73;;;21.10;99.90;;;;;;5090519;28;20590;-77
2023/07/19 01:35:56;;;;;;;4.73;3.17;;;21.10;99.90;;;;;;5083040;28;20179;-77
2023/07/19 01:38:21;;;;;;;3.87;2.90;;;21.10;99.90;;;;;;5078085;28;20203;-78
2023/07/19 01:40:47;;;;;;;4.57;2.57;;;21.20;99.90;;;;;;5074372;28;20171;-77
2023/07/19 01:43:13;;;;;;;5.27;2.70;;;21.20;99.90;;;;;;5073931;28;20171;-77
2023/07/19 01:45:39;;;;;;;5.90;2.80;;;21.30;99.90;;;;;;5073372;28;20171;-78
2023/07/19 01:48:05;;;;;;;4.33;2.50;;;21.30;99.90;;;;;;5074230;28;20250;-77
2023/07/19 01:50:31;;;;;;;7.20;2.80;;;21.30;99.90;;;;;;5073684;28;20644;-77
2023/07/19 01:52:57;;;;;;;4.27;2.70;;;21.30;99.90;;;;;;5073773;28;20175;-77
2023/07/19 01:55:23;;;;;;;4.13;2.77;;;21.30;99.90;;;;;;5073102;28;20250;-77
2023/07/19 01:57:49;;;;;;;2.73;2.43;;;21.30;99.90;;;;;;5073382;28;20287;-77
2023/07/19 02:00:15;;;;;;;8.70;2.83;;;21.30;99.90;;;;;;5073554;28;20228;-79
2023/07/19 02:02:40;;;;;;;6.37;2.80;;;21.20;99.90;;;;;;5073646;28;20642;-77
2023/07/19 02:05:07;;;;;;;2.67;2.50;;;21.20;99.90;;;;;;5073203;28;20224;-77
2023/07/19 02:07:32;;;;;;;5.67;2.33;;;21.20;99.90;;;;;;5072226;28;20254;-77
2023/07/19 02:09:58;;;;;;;3.43;2.70;;;21.30;99.90;;;;;;5077495;28;20206;-76
2023/07/19 02:12:24;;;;;;;6.63;2.70;;;21.20;99.90;;;;;;5077830;28;20182;-76
2023/07/19 02:14:49;;;;;;;3.43;2.60;;;21.20;99.90;;;;;;5073931;28;20175;-77
2023/07/19 02:17:17;;;;;;;3.00;2.60;;;21.20;99.90;;;;;;5079585;28;20249;-78
2023/07/19 02:19:42;;;;;;;5.30;2.80;;;21.20;99.90;;;;;;5074089;28;20228;-77
2023/07/19 02:22:08;;;;;;;3.47;2.53;;;21.20;99.90;;;;;;5075501;28;20253;-75
2023/07/19 02:24:34;;;;;;;3.20;2.20;;;21.20;99.90;;;;;;5076690;28;20270;-75
2023/07/19 02:27:00;;;;;;;4.10;2.37;;;21.20;99.90;;;;;;5075430;28;20167;-77
2023/07/19 02:29:25;;;;;;;2.40;2.20;;;21.10;99.90;;;;;;5073322;28;20257;-76
2023/07/19 02:31:52;;;;;;;3.13;2.70;;;21.10;99.90;;;;;;5073543;28;20179;-78
2023/07/19 02:34:21;;;;;;;3.80;2.53;;;21.00;99.90;;;;;;5073237;28;20266;-77
2023/07/19 02:36:48;;;;;;;4.87;2.70;;;21.10;99.90;;;;;;5073107;28;20202;-76
2023/07/19 02:39:14;;;;;;;2.97;2.53;;;21.10;99.90;;;;;;5073386;28;20167;-78
2023/07/19 02:41:39;;;;;;;6.10;2.73;;;21.00;99.90;;;;;;5073935;28;20174;-76
2023/07/19 02:44:05;;;;;;;4.80;2.53;;;21.00;99.90;;;;;;5074474;28;20697;-76
2023/07/19 02:46:31;;;;;;;6.97;3.00;;;21.00;99.90;;;;;;5074461;28;20258;-76
2023/07/19 02:48:57;;;;;;;4.80;2.40;;;21.00;99.90;;;;;;5074693;28;20224;-76
2023/07/19 02:51:22;;;;;;;5.20;2.53;;;21.00;99.90;;;;;;5073373;28;20175;-78
2023/07/19 02:53:49;;;;;;;5.03;2.60;;;21.10;99.90;;;;;;5074144;28;20223;-78
2023/07/19 02:56:15;;;;;;;4.83;2.40;;;21.10;99.90;;;;;;5078839;28;20159;-77
2023/07/19 02:58:41;;;;;;;2.60;2.40;;;21.10;99.90;;;;;;5094691;28;20213;-74
2023/07/19 03:01:07;;;;;;;2.53;2.33;;;21.20;99.90;;;;;;5096145;28;20170;-74
2023/07/19 03:03:33;;;;;;;5.10;2.73;;;21.10;99.90;;;;;;5095293;28;20187;-78
2023/07/19 03:05:58;;;;;;;3.03;2.30;;;21.00;99.90;;;;;;5093709;28;20171;-76
2023/07/19 03:08:24;;;;;;;5.50;2.80;;;21.00;99.90;;;;;;5095770;28;20247;-76
2023/07/19 03:10:53;;;;;;;4.30;2.63;;;21.00;99.90;;;;;;5095106;28;20183;-76
2023/07/19 03:13:19;;;;;;;5.67;2.83;;;21.00;99.90;;;;;;5097550;28;20198;-75
2023/07/19 03:15:46;;;;;;;5.13;2.90;;;21.00;99.90;;;;;;5086968;28;20182;-78
2023/07/19 03:18:12;;;;;;;6.20;2.63;;;21.10;99.90;;;;;;5089733;28;20245;-75
2023/07/19 03:20:38;;;;;;;2.87;2.60;;;21.00;99.90;;;;;;5082023;28;20206;-76
2023/07/19 03:23:04;;;;;;;7.30;2.73;;;21.10;99.90;;;;;;5081334;28;20199;-75
2023/07/19 03:25:30;;;;;;;6.10;2.77;;;21.10;99.90;;;;;;5093468;28;20171;-76
2023/07/19 03:27:56;;;;;;;4.20;2.63;;;21.20;99.90;;;;;;5082491;28;20222;-77
2023/07/19 03:30:22;;;;;;;4.50;2.33;;;21.20;99.90;;;;;;5089245;28;20171;-77
2023/07/19 03:32:48;;;;;;;8.37;2.90;;;21.20;99.90;;;;;;5078296;28;20266;-76
2023/07/19 03:35:13;;;;;;;3.30;3.00;;;21.30;99.90;;;;;;5080938;28;20641;-76
2023/07/19 03:37:44;;;;;;;5.37;2.40;;;21.40;99.90;;;;;;5078256;28;20285;-78
2023/07/19 03:40:11;;;;;;;4.33;2.63;;;21.40;99.90;;;;;;5079036;28;20163;-78
2023/07/19 03:42:37;;;;;;;4.00;2.70;;;21.40;99.90;;;;;;5079741;28;20229;-77
2023/07/19 03:45:04;;;;;;;3.77;2.40;;;21.40;99.90;;;;;;5081741;28;20171;-77
2023/07/19 03:47:30;;;;;;;3.87;2.90;;;21.40;99.90;;;;;;5091434;28;20168;-77
2023/07/19 03:49:55;;;;;;;4.43;3.10;;;21.40;99.90;;;;;;5088416;28;20198;-76
2023/07/19 03:52:21;;;;;;;5.33;2.90;;;21.40;99.90;;;;;;5077494;28;20175;-78
2023/07/19 03:54:48;;;;;;;4.70;2.77;;;21.20;99.90;;;;;;5078110;28;20222;-78
2023/07/19 03:57:13;;;;;;;6.23;3.00;;;21.20;99.90;;;;;;5076513;28;20214;-78
2023/07/19 03:59:39;;;;;;;4.63;2.80;;;21.30;99.90;;;;;;5078751;28;20168;-77
2023/07/19 04:02:05;;;;;;;6.03;3.03;;;21.40;99.90;;;;;;5081856;28;20538;-78
2023/07/19 04:04:32;;;;;;;5.77;2.63;;;21.50;99.90;;;;;;5077279;28;20179;-76
2023/07/19 04:06:58;;;;;;;4.83;2.90;;;21.40;99.90;;;;;;5077208;28;20198;-77
2023/07/19 04:09:24;;;;;;;4.23;2.50;;;21.50;99.90;;;;;;5076818;28;20172;-77
2023/07/19 04:11:49;;;;;;;4.60;2.70;;;21.50;99.90;;;;;;5077277;28;20207;-75
2023/07/19 04:14:15;;;;;;;2.93;2.73;;;21.40;99.90;;;;;;5087308;28;20178;-77
2023/07/19 04:16:41;;;;;;;4.57;2.40;;;21.30;99.90;;;;;;5077902;28;20191;-77
2023/07/19 04:19:07;;;;;;;5.47;2.90;;;21.20;99.90;;;;;;5077204;28;20189;-76
2023/07/19 04:21:33;;;;;;;5.50;3.17;;;21.20;99.90;;;;;;5078137;28;20218;-77
2023/07/19 04:23:58;;;;;;;6.07;2.77;;;21.20;99.90;;;;;;5077210;28;20233;-77
2023/07/19 04:26:24;;;;;;;7.80;3.00;;;21.20;99.90;;;;;;5076391;28;20496;-77
2023/07/19 04:28:50;;;;;;;8.60;3.30;;;21.20;99.90;;;;;;5077176;28;20198;-75
2023/07/19 04:31:17;;;;;;;3.10;2.60;;;21.20;99.90;;;;;;5077184;28;20627;-77
2023/07/19 04:33:42;;;;;;;5.83;3.17;;;21.20;99.90;;;;;;5077177;28;20530;-78
2023/07/19 04:36:13;;;;;;;5.17;2.53;;;21.30;99.90;;;;;;5076705;28;20193;-76
2023/07/19 04:38:40;;;;;;;5.73;3.07;;;21.30;99.90;;;;;;5075897;28;20225;-76
2023/07/19 04:41:05;;;;;;;4.27;2.97;;;21.20;99.90;;;;;;5077116;28;20178;-76
2023/07/19 04:43:31;;;;;;;3.73;2.47;;;21.20;99.90;;;;;;5076012;28;20195;-77
2023/07/19 04:45:57;;;;;;;6.43;3.03;;;21.10;99.90;;;;;;5077732;28;20610;-78
2023/07/19 04:48:23;;;;;;;6.37;3.40;;;21.10;99.90;;;;;;5076740;28;20176;-78
2023/07/19 04:50:53;;;;;;;6.33;2.97;;;21.10;99.90;;;;;;5077166;28;20204;-77
2023/07/19 04:53:21;;;;;;;7.60;2.80;;;21.10;99.90;;;;;;5075976;28;20175;-78
2023/07/19 04:55:47;;;;;;;6.57;4.03;;;21.00;99.90;;;;;;5075207;28;20186;-75
2023/07/19 04:58:14;;;;;;;4.53;3.07;;;21.00;99.90;;;;;;5073710;28;20301;-77
2023/07/19 05:00:40;;;;;;;4.93;3.17;;;21.00;99.90;;;;;;5076885;28;20171;-75
2023/07/19 05:03:05;;;;;;;4.93;2.90;;;21.10;99.90;;;;;;5078468;28;20175;-77
2023/07/19 05:05:31;;;;;;;3.37;2.80;;;21.10;99.90;;;;;;5075742;28;20243;-77
2023/07/19 05:07:57;;;;;;;3.57;2.50;;;21.20;99.90;;;;;;5075697;28;20175;-76
2023/07/19 05:10:23;;;;;;;3.33;2.80;;;21.20;99.90;;;;;;5073635;28;20225;-76
2023/07/19 05:12:49;;;;;;;5.03;2.83;;;21.30;99.90;;;;;;5075730;28;20638;-76
2023/07/19 05:15:15;;;;;;;4.23;2.80;;;21.20;99.90;;;;;;5078104;28;20182;-76
2023/07/19 05:17:41;;;;;;;6.07;3.07;;;21.10;99.90;;;;;;5092214;28;20203;-74
2023/07/19 05:20:07;;;;;;;4.73;3.03;;;21.10;99.90;;;;;;5087334;28;20168;-77
2023/07/19 05:22:33;;;;;;;6.90;3.50;;;21.20;99.90;;;;;;5076339;28;20202;-76
2023/07/19 05:24:59;;;;;;;5.17;3.30;;;21.30;99.90;;;;;;5076557;28;20179;-75
2023/07/19 05:27:25;;;;;;;4.67;3.23;;;21.30;99.90;;;;;;5079477;28;20593;-77
2023/07/19 05:29:52;;;;;;;3.80;3.33;;;21.40;99.90;;;;;;5076474;28;20711;-77
2023/07/19 05:32:17;;;;;;;6.50;3.07;;;21.50;99.90;;;;;;5076317;28;20179;-76
2023/07/19 05:34:43;;;;;;;6.80;3.40;;;21.40;99.90;;;;;;5075851;28;20233;-76
2023/07/19 05:37:09;;;;;;;5.23;3.30;;;21.40;99.90;;;;;;5075624;28;20207;-75
2023/07/19 05:39:34;;;;;;;8.23;3.23;;;21.40;99.90;;;;;;5078269;28;20193;-77
2023/07/19 05:42:01;;;;;;;4.43;2.90;;;21.40;99.90;;;;;;5075827;28;20631;-77
2023/07/19 05:44:26;;;;;;;5.47;3.43;;;21.30;99.90;;;;;;5075008;28;20262;-77
2023/07/19 05:46:53;;;;;;;6.97;3.53;;;21.30;99.90;;;;;;5075406;28;20202;-80
2023/07/19 05:49:20;;;;;;;4.40;3.10;;;21.20;99.90;;;;;;5076475;28;20579;-75
2023/07/19 05:51:46;;;;;;;4.87;3.40;;;21.20;99.90;;;;;;5076003;28;20193;-78
2023/07/19 05:54:11;;;;;;;4.80;3.40;;;21.20;99.90;;;;;;5077786;28;20227;-76
2023/07/19 05:56:37;;;;;;;5.10;3.00;;;21.30;99.90;;;;;;5094976;28;20274;-74
2023/07/19 05:59:04;;;;;;;9.00;3.03;;;21.10;99.90;;;;;;5078731;28;20177;-75
2023/07/19 06:01:31;;;;;;;5.53;2.83;;;21.10;99.90;;;;;;5075036;28;20217;-78
2023/07/19 06:03:57;;;;;;;4.90;3.10;;;21.00;99.90;;;;;;5074258;28;20175;-77
2023/07/19 06:06:25;;;;;;;5.90;3.10;;;20.80;99.90;;;;;;5074684;28;20219;-77
2023/07/19 06:08:50;;;;;;;8.77;2.97;;;20.70;99.90;;;;;;5076540;28;20218;-77
2023/07/19 06:11:16;;;;;;;3.97;2.80;;;20.70;99.90;;;;;;5075983;28;20171;-76
2023/07/19 06:13:42;;;;;;;5.80;3.10;;;20.80;99.90;;;;;;5074459;28;20175;-74
2023/07/19 06:16:08;;;;;;;7.50;3.20;;;21.00;99.90;;;;;;5073426;28;20179;-78
2023/07/19 06:18:33;;;;;;;5.57;2.97;;;21.00;99.90;;;;;;5074741;28;20230;-79
2023/07/19 06:20:59;;;;;;;3.30;3.00;;;21.00;99.90;;;;;;5074914;28;20256;-77
2023/07/19 06:23:25;;;;;;;6.03;3.10;;;20.90;99.90;;;;;;5076141;28;20282;-78
2023/07/19 06:25:51;;;;;;;4.03;2.90;;;21.10;99.90;;;;;;5074489;28;20182;-75
2023/07/19 06:28:17;;;;;;;6.00;2.90;;;21.30;99.90;;;;;;5077987;28;20182;-75
2023/07/19 06:30:42;;;;;;;6.23;3.33;;;21.30;99.90;;;;;;5074169;28;20523;-78
2023/07/19 06:33:09;;;;;;;5.33;2.83;;;21.40;99.90;;;;;;5074919;28;20175;-78
2023/07/19 06:35:35;;;;;;;7.53;3.60;;;21.40;99.90;;;;;;5075343;28;20238;-78
2023/07/19 06:38:01;;;;;;;7.37;3.30;;;21.40;99.90;;;;;;5073840;28;20214;-78
2023/07/19 06:40:26;;;;;;;7.53;2.90;;;21.50;99.90;;;;;;5082982;28;20175;-79
2023/07/19 06:42:53;;;;;;;3.97;3.20;;;21.60;99.90;;;;;;5092891;28;20179;-76
2023/07/19 06:45:19;;;;;;;5.30;3.33;;;21.60;99.90;;;;;;5083187;28;20543;-77
2023/07/19 06:47:45;;;;;;;5.03;2.90;;;21.70;99.90;;;;;;5079326;28;20237;-77
2023/07/19 06:50:11;;;;;;;6.77;3.40;;;21.70;99.90;;;;;;5076193;28;20167;-76
2023/07/19 06:52:37;;;;;;;4.10;3.30;;;21.60;99.90;;;;;;5075605;28;20220;-77
2023/07/19 06:55:04;;;;;;;5.73;2.77;;;21.70;99.90;;;;;;5075435;28;20226;-79
2023/07/19 06:57:30;;;;;;;7.77;2.90;;;21.90;99.90;;;;;;5075335;28;20289;-78
2023/07/19 06:59:56;;;;;;;5.07;2.83;;;21.90;99.90;;;;;;5080241;28;20167;-75
2023/07/19 07:02:22;;;;;;;5.53;2.97;;;22.10;99.90;;;;;;5080433;28;20217;-76
2023/07/19 07:04:49;;;;;;;6.23;3.57;;;22.10;99.90;;;;;;5074491;28;20175;-76
2023/07/19 07:07:19;;;;;;;5.03;2.90;;;22.20;99.90;;;;;;5074058;28;20241;-76
2023/07/19 07:09:47;;;;;;;5.90;3.80;;;22.30;99.90;;;;;;5091723;28;20160;-78
2023/07/19 07:12:13;;;;;;;7.67;3.20;;;22.40;99.90;;;;;;5083419;28;20278;-76
2023/07/19 07:14:39;;;;;;;6.77;2.90;;;22.60;99.90;;;;;;5076834;28;20199;-77
2023/07/19 07:17:06;;;;;;;5.57;3.20;;;22.90;99.90;;;;;;5078742;28;20203;-76
2023/07/19 07:19:32;;;;;;;3.33;2.87;;;23.00;99.90;;;;;;5078938;28;20175;-77
2023/07/19 07:21:58;;;;;;;5.10;2.83;;;23.20;99.90;;;;;;5075308;28;20176;-78
2023/07/19 07:24:24;;;;;;;3.80;2.80;;;23.30;99.90;;;;;;5074526;28;20294;-76
2023/07/19 07:26:50;;;;;;;3.17;2.73;;;23.20;99.90;;;;;;5073676;28;20633;-77
2023/07/19 07:29:16;;;;;;;3.13;2.83;;;23.00;99.90;;;;;;5074248;28;20194;-76
2023/07/19 07:31:42;;;;;;;5.80;2.70;;;22.80;99.90;;;;;;5074055;28;20180;-77
2023/07/19 07:34:08;;;;;;;6.37;3.03;;;22.70;99.90;;;;;;5073878;28;20590;-78
2023/07/19 07:36:34;;;;;;;3.97;2.93;;;22.80;99.90;;;;;;5073892;28;20534;-75
2023/07/19 07:39:00;;;;;;;4.13;2.63;;;22.90;99.90;;;;;;5073333;28;20185;-76
2023/07/19 07:41:26;;;;;;;4.23;3.23;;;22.90;99.90;;;;;;5055531;28;20183;-77
2023/07/19 07:43:52;;;;;;;4.80;2.70;;;22.90;99.90;;;;;;5076263;28;20183;-77
2023/07/19 07:46:18;;;;;;;6.30;2.83;;;23.00;99.90;;;;;;5077467;28;20186;-78
2023/07/19 07:48:43;;;;;;;3.80;3.40;;;23.20;99.90;;;;;;5078458;28;20199;-76
2023/07/19 07:51:09;;;;;;;4.67;2.80;;;23.20;99.90;;;;;;5078139;28;20599;-76
2023/07/19 07:53:35;;;;;;;4.10;2.50;;;23.00;99.90;;;;;;5077852;28;20678;-76
2023/07/19 07:56:02;;;;;;;4.77;2.93;;;23.00;99.90;;;;;;5078724;28;20160;-76
2023/07/19 07:58:28;;;;;;;4.70;2.90;;;23.20;99.90;;;;;;5078898;28;20228;-77
2023/07/19 08:00:54;;;;;;;4.10;3.10;;;23.00;99.90;;;;;;5078997;28;20179;-76
2023/07/19 08:03:20;;;;;;;7.00;3.00;;;23.20;99.90;;;;;;5085780;28;20251;-76
2023/07/19 08:05:46;;;;;;;3.97;2.80;;;23.10;99.90;;;;;;5087876;28;20175;-75
2023/07/19 08:08:12;;;;;;;5.00;2.87;;;23.10;99.90;;;;;;5078636;28;20175;-76
2023/07/19 08:10:39;;;;;;;3.10;2.70;;;23.30;99.90;;;;;;5077395;28;20172;-75
2023/07/19 08:13:05;;;;;;;5.63;2.78;;;23.40;99.90;;;;;;5076880;28;20191;-76
2023/07/19 08:15:31;;;;;;;5.13;2.50;;;23.60;99.90;;;;;;5077827;28;20191;-77
2023/07/19 08:17:57;;;;;;;4.67;2.87;;;23.40;99.90;;;;;;5074571;28;20608;-76
2023/07/19 08:20:25;;;;;;;3.03;2.73;;;23.40;99.90;;;;;;5076442;28;20228;-75
2023/07/19 08:22:51;;;;;;;2.90;2.70;;;23.50;99.90;;;;;;5083640;28;20167;-75
2023/07/19 08:25:21;;;;;;;4.88;2.72;;;23.60;99.90;;;;;;5082232;28;20167;-76
2023/07/19 08:27:47;;;;;;;7.07;2.63;;;23.60;99.90;;;;;;5078334;28;20657;-76
2023/07/19 08:30:16;;;;;;;5.75;2.70;;;23.60;99.90;;;;;;5076001;28;20182;-78
2023/07/19 08:32:46;;;;;;;4.15;2.67;;;23.60;99.90;;;;;;5077153;28;20175;-78
2023/07/19 08:35:16;;;;;;;5.10;2.65;;;23.60;99.90;;;;;;5075044;28;20591;-74
2023/07/19 08:37:43;;;;;;;5.10;2.83;;;23.70;99.90;;;;;;5077735;28;20294;-76
2023/07/19 08:40:14;;;;;;;4.80;2.57;;;23.80;99.90;;;;;;5076804;28;20175;-77
2023/07/19 08:42:41;;;;;;;8.13;3.25;;;23.80;99.90;;;;;;5076264;28;20156;-78
2023/07/19 08:45:08;;;;;;;4.80;2.75;;;23.80;99.90;;;;;;5072887;28;20203;-78
2023/07/19 08:47:35;;;;;;;3.37;2.40;;;23.80;99.90;;;;;;5075279;28;20650;-78
2023/07/19 08:50:04;;;;;;;4.03;2.60;;;23.90;99.90;;;;;;5076772;28;20171;-77
2023/07/19 08:52:31;;;;;;;6.10;2.90;;;24.00;99.90;;;;;;5076438;28;20176;-76
2023/07/19 08:54:57;;;;;;;5.53;3.03;;;24.00;99.90;;;;;;5085409;28;20314;-77
2023/07/19 08:57:23;;;;;;;4.90;2.90;;;24.20;99.90;;;;;;5075517;28;20215;-77
2023/07/19 08:59:48;;;;;;;5.00;2.97;;;24.30;99.90;;;;;;5076449;28;20183;-75
2023/07/19 09:02:14;;;;;;;3.35;2.92;;;24.30;99.90;;;;;;5088791;28;20198;-76
2023/07/19 09:05:00;;;;;;;6.75;3.03;;;24.50;99.90;;;;;;5082284;28;20266;-77
2023/07/19 09:07:26;;;;;;;3.17;2.80;;;24.60;99.90;;;;;;5077345;28;20186;-77
2023/07/19 09:09:55;;;;;;;4.82;3.08;;;24.60;99.90;;;;;;5076804;28;20270;-77
2023/07/19 09:12:20;;;;;;;6.75;3.95;;;24.70;99.90;;;;;;5076032;28;20199;-75
2023/07/19 09:14:46;;;;;;;3.53;3.22;;;24.80;99.90;;;;;;5077514;28;20190;-76
2023/07/19 09:17:12;;;;;;;3.55;2.88;;;24.90;99.90;;;;;;5075781;28;20206;-75
2023/07/19 09:19:42;;;;;;;7.78;3.33;;;24.90;99.90;;;;;;5076571;28;20665;-77
2023/07/19 09:22:09;;;;;;;7.80;2.92;;;24.90;99.90;;;;;;5076565;28;20232;-77
2023/07/19 09:24:35;;;;;;;7.70;3.20;;;24.80;99.90;;;;;;5071997;28;20634;-76
2023/07/19 09:27:01;;;;;;;5.38;3.03;;;24.80;99.90;;;;;;5076073;28;20179;-77
2023/07/19 09:29:30;;;;;;;3.88;3.50;;;24.80;99.90;;;;;;5077230;28;20230;-77
2023/07/19 09:31:57;;;;;;;9.10;3.92;;;24.80;99.90;;;;;;5075962;28;20269;-76
2023/07/19 09:34:26;;;;;;;3.25;3.00;;;24.90;99.90;;;;;;5076311;28;20653;-76
2023/07/19 09:36:53;;;;;;;9.13;3.83;;;24.90;99.90;;;;;;5076009;28;20612;-78
2023/07/19 09:39:19;;;;;;;5.45;3.13;;;24.90;99.90;;;;;;5076307;28;20199;-78
2023/07/19 09:41:46;;;;;;;3.30;2.97;;;25.00;99.90;;;;;;5076041;28;20249;-77
2023/07/19 09:44:15;;;;;;;9.68;3.47;;;25.20;99.90;;;;;;5076494;28;20194;-76
2023/07/19 09:46:42;;;;;;;5.50;3.40;;;25.20;99.90;;;;;;5076779;28;20698;-77
2023/07/19 09:49:08;;;;;;;2.92;2.60;;;25.40;99.90;;;;;;5076463;28;20262;-77
2023/07/19 09:51:35;;;;;;;6.50;3.55;;;25.60;99.90;;;;;;5075455;28;20287;-77
2023/07/19 09:54:06;;;;;;;5.63;3.20;;;25.80;99.90;;;;;;5075353;28;20696;-79
2023/07/19 09:56:32;;;;;;;6.47;3.17;;;25.90;99.90;;;;;;5073236;28;20349;-75
2023/07/19 09:59:04;;;;;;;7.85;3.65;;;25.90;99.90;;;;;;5074273;28;20179;-78
2023/07/19 10:01:30;;;;;;;5.55;3.40;;;26.00;99.90;;;;;;5074473;28;20187;-76
2023/07/19 10:03:59;;;;;;;6.78;3.58;;;25.80;99.90;;;;;;5080127;28;20182;-78
2023/07/19 10:06:31;;;;;;;6.22;3.85;;;25.70;99.90;;;;;;5092029;28;20186;-78
2023/07/19 10:09:22;;;;;;;5.03;3.22;;;25.70;99.90;;;;;;5077200;28;20183;-76
2023/07/19 10:11:52;;;;;;;5.28;3.20;;;25.80;99.90;;;;;;5082744;28;20171;-77
2023/07/19 10:14:25;;;;;;;6.47;3.20;;;25.80;99.90;;;;;;5088100;28;20217;-79
2023/07/19 10:16:57;;;;;;;5.50;3.35;;;25.60;99.90;;;;;;5076829;28;20712;-78
2023/07/19 10:19:23;;;;;;;4.93;2.90;;;25.40;99.90;;;;;;5076151;28;20186;-77
2023/07/19 10:22:06;;;;;;;6.43;3.10;;;25.20;99.90;;;;;;5074372;28;20179;-74
2023/07/19 10:24:36;;;;;;;4.13;3.08;;;25.20;99.90;;;;;;5080798;28;20175;-75
2023/07/19 10:27:04;;;;;;;4.55;3.38;;;25.20;99.90;;;;;;5078859;28;20175;-76
2023/07/19 10:29:44;;;;;;;5.88;3.53;;;25.30;99.90;;;;;;5076267;28;20280;-76
2023/07/19 10:32:10;;;;;;;11.07;3.55;;;25.40;99.90;;;;;;5074814;28;20232;-76
2023/07/19 10:34:36;;;;;;;7.45;3.40;;;25.50;99.90;;;;;;5081321;28;20246;-78
2023/07/19 10:37:03;;;;;;;7.25;3.78;;;25.50;99.90;;;;;;5084111;28;20198;-76
2023/07/19 10:39:30;;;;;;;7.13;3.50;;;25.60;99.90;;;;;;5077892;28;20193;-77
2023/07/19 10:41:57;;;;;;;8.57;3.80;;;25.70;99.90;;;;;;5076247;28;20296;-77
2023/07/19 10:44:24;;;;;;;5.32;3.38;;;25.80;99.90;;;;;;5075742;28;20611;-78
2023/07/19 10:46:50;;;;;;;5.18;3.35;;;25.90;99.90;;;;;;5075837;28;20160;-76
2023/07/19 10:49:16;;;;;;;4.75;2.92;;;26.00;99.90;;;;;;5076334;28;20186;-76
2023/07/19 10:51:53;;;;;;;3.80;2.78;;;26.20;99.90;;;;;;5075546;28;20189;-77
2023/07/19 10:54:19;;;;;;;7.97;3.35;;;26.50;99.90;;;;;;5074256;28;20225;-77
2023/07/19 10:56:48;;;;;;;6.10;2.80;;;26.70;99.90;;;;;;5075412;28;20245;-76
2023/07/19 10:59:14;;;;;;;4.97;2.95;;;26.90;99.90;;;;;;5074987;28;20182;-75
2023/07/19 11:01:41;;;;;;;4.82;3.38;;;27.10;99.90;;;;;;5075233;28;20175;-76
2023/07/19 11:04:07;;;;;;;5.97;2.95;;;27.30;99.90;;;;;;5074857;28;20183;-75
2023/07/19 11:06:38;;;;;;;7.53;3.78;;;27.50;99.90;;;;;;5075183;28;20252;-78
2023/07/19 11:09:08;;;;;;;7.00;3.53;;;27.70;99.90;;;;;;5075851;28;20180;-76
2023/07/19 11:11:38;;;;;;;4.00;2.83;;;27.90;99.90;;;;;;5075416;28;20225;-77
2023/07/19 11:14:04;;;;;;;4.10;3.25;;;27.90;99.90;;;;;;5074957;28;20183;-77
2023/07/19 11:16:31;;;;;;;3.10;2.80;;;27.90;99.90;;;;;;5074867;28;20195;-76
2023/07/19 11:18:58;;;;;;;4.30;3.28;;;27.90;99.90;;;;;;5076082;28;20234;-76
2023/07/19 11:21:27;;;;;;;11.10;4.00;;;27.90;99.90;;;;;;5079004;28;20175;-77
2023/07/19 11:23:54;;;;;;;4.70;3.33;;;28.00;99.90;;;;;;5079254;28;20560;-79
2023/07/19 11:26:21;;;;;;;7.05;3.40;;;28.20;99.90;;;;;;5079306;28;20503;-80
2023/07/19 11:28:53;;;;;;;6.25;3.33;;;28.40;99.90;;;;;;5080610;28;20167;-80
2023/07/19 11:31:35;;;;;;;5.38;2.95;;;28.50;99.90;;;;;;5081092;28;20265;-80
2023/07/19 11:34:07;;;;;;;3.58;2.55;;;28.60;99.90;;;;;;5078971;28;20171;-83
2023/07/19 11:36:34;;;;;;;4.50;3.08;;;28.80;99.90;;;;;;5078855;28;20182;-78
2023/07/19 11:39:00;;;;;;;7.32;2.97;;;28.90;99.90;;;;;;5078073;28;20171;-81
2023/07/19 11:41:29;;;;;;;4.22;3.35;;;28.90;99.90;;;;;;5079297;28;20171;-81
2023/07/19 11:43:55;;;;;;;4.93;3.33;;;28.80;99.90;;;;;;5080305;28;20171;-80
2023/07/19 11:46:21;;;;;;;4.57;3.35;;;28.60;99.90;;;;;;5079793;28;20175;-80
2023/07/19 11:48:47;;;;;;;9.02;3.10;;;28.50;99.90;;;;;;5091274;28;20171;-77
2023/07/19 11:51:14;;;;;;;5.03;2.90;;;28.40;99.90;;;;;;5086720;28;20190;-80
2023/07/19 11:53:40;;;;;;;3.60;3.00;;;28.20;99.90;;;;;;5080012;28;20174;-77
2023/07/19 11:56:06;;;;;;;4.70;3.15;;;28.10;99.90;;;;;;5077629;28;20317;-81
2023/07/19 11:58:33;;;;;;;5.10;3.53;;;28.00;99.90;;;;;;5077357;28;20206;-78
2023/07/19 12:01:00;;;;;;;6.40;3.13;;;28.00;99.90;;;;;;5080214;28;20195;-79
2023/07/19 12:03:26;;;;;;;6.82;3.40;;;28.00;99.90;;;;;;5079561;28;20167;-77
2023/07/19 12:05:52;;;;;;;6.70;4.88;;;28.10;99.90;;;;;;5076437;28;20312;-77
2023/07/19 12:08:17;;;;;;;7.03;3.75;;;28.20;99.90;;;;;;5078491;28;20229;-77
2023/07/19 12:10:43;;;;;;;5.72;3.22;;;28.20;99.90;;;;;;5077378;28;20175;-75
2023/07/19 12:13:09;;;;;;;4.35;3.05;;;28.20;99.90;;;;;;5081724;28;20175;-75
2023/07/19 12:15:35;;;;;;;3.47;2.97;;;28.20;99.90;;;;;;5083839;28;20183;-76
2023/07/19 12:18:01;;;;;;;5.53;3.17;;;28.40;99.90;;;;;;5077406;28;20191;-77
2023/07/19 12:20:27;;;;;;;4.43;3.45;;;28.60;99.90;;;;;;5078449;28;20213;-77
2023/07/19 12:22:53;;;;;;;6.53;3.42;;;28.80;99.90;;;;;;5083519;28;20193;-76
2023/07/19 12:25:20;;;;;;;6.40;3.15;;;28.90;99.90;;;;;;5087392;28;20171;-77
2023/07/19 12:27:52;;;;;;;3.60;3.15;;;29.10;99.90;;;;;;5086503;28;20325;-76
2023/07/19 12:30:19;;;;;;;4.07;3.30;;;29.20;99.90;;;;;;5077059;28;20168;-76
2023/07/19 12:32:45;;;;;;;7.57;3.22;;;29.30;99.90;;;;;;5078492;28;20215;-78
2023/07/19 12:35:11;;;;;;;3.90;3.35;;;29.50;99.90;;;;;;5076969;28;20537;-76
2023/07/19 12:37:36;;;;;;;4.10;3.03;;;29.60;99.90;;;;;;5077749;28;20202;-76
2023/07/19 12:40:05;;;;;;;6.18;3.67;;;29.60;99.90;;;;;;5078171;28;20181;-75
2023/07/19 12:42:31;;;;;;;4.32;3.00;;;29.70;99.90;;;;;;5077864;28;20171;-77
2023/07/19 12:44:56;;;;;;;8.02;3.63;;;29.70;99.90;;;;;;5078215;28;20218;-79